createdAt,value
2019-04-27T00:02:39.217Z,17.27
2019-04-27T00:05:32.098Z,17.35
2019-04-27T00:08:21.098Z,17.15
2019-04-27T00:11:08.648Z,17.20
2019-04-27T00:13:40.747Z,17.10
2019-04-27T00:16:23.535Z,17.23
2019-04-27T00:19:11.000Z,17.27
2019-04-27T00:21:47.662Z,17.41
2019-04-27T00:24:16.714Z,17.32
2019-04-27T00:26:45.512Z,17.16
2019-04-27T00:29:13.778Z,16.95
2019-04-27T00:31:43.446Z,16.81
2019-04-27T00:34:13.346Z,16.79
2019-04-27T00:36:50.009Z,16.63
2019-04-27T00:39:31.077Z,16.50
2019-04-27T00:41:58.914Z,16.09
2019-04-27T00:44:27.102Z,16.31
2019-04-27T00:46:55.791Z,16.68
2019-04-27T00:49:24.280Z,16.68
2019-04-27T00:51:54.252Z,16.52
2019-04-27T00:54:23.800Z,16.62
2019-04-27T00:57:26.458Z,16.29
2019-04-27T01:00:13.453Z,16.28
2019-04-27T01:02:48.473Z,16.33
2019-04-27T01:05:19.998Z,16.39
2019-04-27T01:07:48.063Z,16.50
2019-04-27T01:10:16.320Z,16.30
2019-04-27T01:12:45.229Z,16.30
2019-04-27T01:15:15.165Z,16.03
2019-04-27T01:17:43.072Z,15.75
2019-04-27T01:20:11.856Z,15.54
2019-04-27T01:22:41.409Z,15.57
2019-04-27T01:25:10.484Z,15.33
2019-04-27T01:27:59.533Z,15.17
2019-04-27T01:30:34.295Z,15.15
2019-04-27T01:33:04.176Z,14.99
2019-04-27T01:35:32.375Z,14.99
2019-04-27T01:38:00.486Z,14.90
2019-04-27T01:40:29.489Z,14.86
2019-04-27T01:42:58.860Z,14.93
2019-04-27T01:45:26.840Z,14.99
2019-04-27T01:47:54.784Z,15.05
2019-04-27T01:50:23.188Z,15.01
2019-04-27T01:52:51.744Z,14.91
2019-04-27T01:55:19.677Z,14.92
2019-04-27T01:57:48.728Z,14.87
2019-04-27T02:00:49.427Z,14.76
2019-04-27T02:03:20.472Z,14.71
2019-04-27T02:05:52.893Z,14.63
2019-04-27T02:08:20.914Z,14.47
2019-04-27T02:10:49.626Z,14.47
2019-04-27T02:13:18.866Z,14.38
2019-04-27T02:15:48.684Z,14.34
2019-04-27T02:18:16.836Z,14.26
2019-04-27T02:20:44.838Z,14.16
2019-04-27T02:23:12.901Z,14.08
2019-04-27T02:25:40.894Z,14.03
2019-04-27T02:28:34.418Z,14.11
2019-04-27T02:31:40.440Z,14.02
2019-04-27T02:34:11.362Z,14.02
2019-04-27T02:36:39.344Z,13.94
2019-04-27T02:39:09.493Z,13.89
2019-04-27T02:41:40.042Z,13.84
2019-04-27T02:44:30.327Z,13.75
2019-04-27T02:47:00.319Z,13.75
2019-04-27T02:49:30.388Z,13.82
2019-04-27T02:52:06.385Z,13.83
2019-04-27T02:54:34.920Z,13.78
2019-04-27T02:57:03.722Z,13.82
2019-04-27T02:59:31.665Z,13.82
2019-04-27T03:02:10.534Z,13.84
2019-04-27T03:04:39.878Z,13.71
2019-04-27T03:07:08.282Z,13.63
2019-04-27T03:09:36.229Z,13.58
2019-04-27T03:12:04.786Z,13.58
2019-04-27T03:14:50.784Z,13.60
2019-04-27T03:17:26.953Z,13.52
2019-04-27T03:20:04.049Z,13.53
2019-04-27T03:22:39.565Z,13.53
2019-04-27T03:25:26.922Z,13.51
2019-04-27T03:28:00.121Z,13.51
2019-04-27T03:30:34.725Z,13.47
2019-04-27T03:33:03.257Z,13.45
2019-04-27T03:35:35.335Z,13.38
2019-04-27T03:38:00.521Z,13.42
2019-04-27T03:40:30.748Z,13.42
2019-04-27T03:43:02.672Z,13.30
2019-04-27T03:45:30.610Z,13.33
2019-04-27T03:48:00.441Z,13.32
2019-04-27T03:50:34.144Z,13.39
2019-04-27T03:53:23.277Z,13.39
2019-04-27T03:55:53.943Z,13.25
2019-04-27T03:58:34.677Z,13.25
2019-04-27T04:01:02.699Z,13.28
2019-04-27T04:03:31.313Z,13.30
2019-04-27T04:06:00.247Z,13.26
2019-04-27T04:08:30.734Z,13.28
2019-04-27T04:11:10.312Z,13.28
2019-04-27T04:13:43.690Z,13.24
2019-04-27T04:16:20.203Z,13.21
2019-04-27T04:19:00.794Z,13.26
2019-04-27T04:21:29.939Z,13.15
2019-04-27T04:24:00.503Z,13.13
2019-04-27T04:26:29.485Z,13.03
2019-04-27T04:28:59.865Z,13.02
2019-04-27T04:31:32.474Z,13.09
2019-04-27T04:33:59.805Z,12.98
2019-04-27T04:36:30.158Z,12.97
2019-04-27T04:39:00.452Z,12.97
2019-04-27T04:41:44.843Z,12.99
2019-04-27T04:44:21.284Z,12.96
2019-04-27T04:47:10.351Z,12.95
2019-04-27T04:49:39.773Z,12.95
2019-04-27T04:52:09.634Z,12.83
2019-04-27T04:54:37.973Z,12.78
2019-04-27T04:57:05.844Z,12.79
2019-04-27T04:59:33.850Z,12.75
2019-04-27T05:02:02.324Z,12.68
2019-04-27T05:04:31.401Z,12.67
2019-04-27T05:06:59.389Z,12.54
2019-04-27T05:09:27.261Z,12.54
2019-04-27T05:11:55.525Z,12.49
2019-04-27T05:14:23.435Z,12.62
2019-04-27T05:16:51.394Z,12.52
2019-04-27T05:19:19.508Z,12.50
2019-04-27T05:21:49.171Z,12.47
2019-04-27T05:24:19.028Z,12.44
2019-04-27T05:26:48.624Z,12.46
2019-04-27T05:29:16.579Z,12.39
2019-04-27T05:31:45.067Z,12.30
2019-04-27T05:34:13.812Z,12.30
2019-04-27T05:36:48.784Z,12.40
2019-04-27T05:39:13.214Z,12.40
2019-04-27T05:41:41.822Z,12.42
2019-04-27T05:44:20.842Z,12.48
2019-04-27T05:47:11.731Z,12.34
2019-04-27T05:49:44.249Z,12.34
2019-04-27T05:52:29.961Z,12.34
2019-04-27T05:54:59.184Z,12.33
2019-04-27T05:57:30.832Z,12.34
2019-04-27T06:00:01.073Z,12.29
2019-04-27T06:02:30.241Z,12.19
2019-04-27T06:05:00.124Z,12.17
2019-04-27T06:07:29.596Z,12.20
2019-04-27T06:09:59.803Z,12.52
2019-04-27T06:12:29.593Z,12.75
2019-04-27T06:14:59.921Z,12.64
2019-04-27T06:17:29.840Z,12.55
2019-04-27T06:19:59.531Z,12.39
2019-04-27T06:22:29.240Z,12.32
2019-04-27T06:24:59.736Z,12.32
2019-04-27T06:27:30.197Z,12.28
2019-04-27T06:29:59.282Z,12.27
2019-04-27T06:32:29.569Z,12.19
2019-04-27T06:34:59.055Z,12.20
2019-04-27T06:37:29.107Z,12.13
2019-04-27T06:39:57.175Z,12.04
2019-04-27T06:42:25.112Z,12.09
2019-04-27T06:44:52.924Z,12.04
2019-04-27T06:47:20.833Z,12.04
2019-04-27T06:49:49.540Z,12.09
2019-04-27T06:52:18.700Z,12.08
2019-04-27T06:54:48.519Z,11.91
2019-04-27T06:57:16.403Z,11.98
2019-04-27T06:59:48.390Z,11.93
2019-04-27T07:02:19.023Z,11.97
2019-04-27T07:04:47.004Z,11.97
2019-04-27T07:07:14.813Z,12.05
2019-04-27T07:09:42.904Z,12.00
2019-04-27T07:12:11.411Z,12.04
2019-04-27T07:14:51.752Z,12.06
2019-04-27T07:17:09.224Z,12.10
2019-04-27T07:19:37.129Z,12.14
2019-04-27T07:22:04.907Z,12.16
2019-04-27T07:24:32.729Z,12.17
2019-04-27T07:27:00.511Z,12.15
2019-04-27T07:29:29.289Z,12.10
2019-04-27T07:31:59.621Z,12.14
2019-04-27T07:34:28.602Z,12.25
2019-04-27T07:36:59.581Z,12.21
2019-04-27T07:39:29.239Z,12.19
2019-04-27T07:41:58.604Z,12.15
2019-04-27T07:44:41.245Z,12.16
2019-04-27T07:47:20.394Z,12.15
2019-04-27T07:49:49.658Z,12.09
2019-04-27T07:52:18.551Z,12.20
2019-04-27T07:54:49.187Z,12.26
2019-04-27T07:57:17.416Z,12.16
2019-04-27T07:59:45.373Z,12.16
2019-04-27T08:02:13.312Z,12.19
2019-04-27T08:04:43.163Z,12.27
2019-04-27T08:07:11.091Z,12.33
2019-04-27T08:09:41.169Z,12.27
2019-04-27T08:12:10.888Z,12.33
2019-04-27T08:14:39.103Z,12.31
2019-04-27T08:17:07.228Z,12.30
2019-04-27T08:19:35.181Z,12.33
2019-04-27T08:22:03.269Z,12.51
2019-04-27T08:24:31.197Z,12.44
2019-04-27T08:27:09.461Z,12.40
2019-04-27T08:29:56.540Z,12.38
2019-04-27T08:32:29.875Z,12.37
2019-04-27T08:34:59.438Z,12.35
2019-04-27T08:37:28.672Z,12.36
2019-04-27T08:39:56.744Z,12.39
2019-04-27T08:42:24.663Z,12.38
2019-04-27T08:44:52.810Z,12.42
2019-04-27T08:47:20.723Z,12.35
2019-04-27T08:49:49.154Z,12.29
2019-04-27T08:52:17.247Z,12.29
2019-04-27T08:54:45.464Z,12.37
2019-04-27T08:57:13.411Z,12.42
2019-04-27T08:59:41.304Z,12.43
2019-04-27T09:02:09.962Z,12.30
2019-04-27T09:04:39.486Z,12.25
2019-04-27T09:07:25.624Z,12.37
2019-04-27T09:09:57.440Z,12.31
2019-04-27T09:12:53.507Z,12.32
2019-04-27T09:15:27.136Z,12.37
2019-04-27T09:17:55.708Z,12.41
2019-04-27T09:20:29.765Z,12.43
2019-04-27T09:22:59.190Z,12.47
2019-04-27T09:25:27.261Z,12.35
2019-04-27T09:27:55.222Z,12.22
2019-04-27T09:30:23.232Z,12.22
2019-04-27T09:32:51.155Z,12.30
2019-04-27T09:35:18.962Z,12.36
2019-04-27T09:37:47.604Z,12.27
2019-04-27T09:40:17.151Z,12.35
2019-04-27T09:42:46.367Z,12.33
2019-04-27T09:45:15.921Z,12.37
2019-04-27T09:47:44.028Z,12.30
2019-04-27T09:50:12.119Z,12.30
2019-04-27T09:52:40.664Z,12.30
2019-04-27T09:55:08.690Z,12.33
2019-04-27T09:57:37.015Z,12.40
2019-04-27T10:00:08.905Z,12.47
2019-04-27T10:02:36.992Z,12.44
2019-04-27T10:05:06.062Z,12.48
2019-04-27T10:07:35.750Z,12.45
2019-04-27T10:10:06.463Z,12.48
2019-04-27T10:12:36.889Z,12.53
2019-04-27T10:15:06.780Z,12.62
2019-04-27T10:17:34.728Z,12.53
2019-04-27T10:20:02.852Z,12.63
2019-04-27T10:22:40.399Z,12.68
2019-04-27T10:25:00.716Z,12.65
2019-04-27T10:27:29.477Z,12.56
2019-04-27T10:29:58.524Z,12.59
2019-04-27T10:32:26.633Z,12.61
2019-04-27T10:34:54.526Z,12.65
2019-04-27T10:37:22.388Z,12.68
2019-04-27T10:39:50.177Z,12.73
2019-04-27T10:42:18.194Z,12.74
2019-04-27T10:44:46.367Z,12.68
2019-04-27T10:47:15.786Z,12.65
2019-04-27T10:49:43.716Z,12.64
2019-04-27T10:52:11.784Z,12.65
2019-04-27T10:54:39.574Z,12.69
2019-04-27T10:57:07.651Z,12.63
2019-04-27T10:59:36.132Z,12.68
2019-04-27T11:02:04.359Z,12.78
2019-04-27T11:05:03.560Z,12.76
2019-04-27T11:07:36.275Z,12.78
2019-04-27T11:10:07.526Z,12.86
2019-04-27T11:12:36.197Z,12.92
2019-04-27T11:15:07.754Z,12.92
2019-04-27T11:17:37.087Z,12.99
2019-04-27T11:20:07.719Z,13.04
2019-04-27T11:22:36.393Z,13.06
2019-04-27T11:25:06.214Z,13.15
2019-04-27T11:27:34.447Z,13.19
2019-04-27T11:30:02.653Z,13.23
2019-04-27T11:32:30.604Z,13.31
2019-04-27T11:35:12.758Z,13.37
2019-04-27T11:37:40.645Z,13.37
2019-04-27T11:40:10.485Z,13.37
2019-04-27T11:42:38.611Z,13.41
2019-04-27T11:45:07.270Z,13.41
2019-04-27T11:47:36.534Z,13.36
2019-04-27T11:50:06.345Z,13.28
2019-04-27T11:52:34.791Z,13.28
2019-04-27T11:55:03.026Z,13.34
2019-04-27T11:57:30.800Z,13.35
2019-04-27T11:59:58.847Z,13.38
2019-04-27T12:02:26.635Z,13.39
2019-04-27T12:04:54.604Z,13.51
2019-04-27T12:07:22.627Z,13.52
2019-04-27T12:09:50.597Z,13.52
2019-04-27T12:12:21.741Z,13.59
2019-04-27T12:14:48.436Z,13.64
2019-04-27T12:17:16.591Z,13.73
2019-04-27T12:19:46.434Z,13.76
2019-04-27T12:22:16.280Z,13.76
2019-04-27T12:24:45.751Z,13.79
2019-04-27T12:27:30.377Z,13.81
2019-04-27T12:30:06.267Z,13.80
2019-04-27T12:32:36.019Z,13.80
2019-04-27T12:35:04.302Z,13.82
2019-04-27T12:37:32.191Z,13.84
2019-04-27T12:40:00.124Z,13.84
2019-04-27T12:42:28.675Z,13.89
2019-04-27T12:44:56.614Z,13.93
2019-04-27T12:47:26.215Z,13.95
2019-04-27T12:49:57.517Z,13.94
2019-04-27T12:52:23.947Z,13.92
2019-04-27T12:55:00.045Z,14.00
2019-04-27T12:57:37.095Z,14.00
2019-04-27T13:00:26.543Z,13.99
2019-04-27T13:02:55.603Z,13.94
2019-04-27T13:05:25.823Z,13.99
2019-04-27T13:07:53.849Z,14.09
2019-04-27T13:10:22.000Z,14.09
2019-04-27T13:12:49.976Z,14.13
2019-04-27T13:15:18.131Z,14.19
2019-04-27T13:17:46.125Z,14.16
2019-04-27T13:20:16.565Z,14.19
2019-04-27T13:22:45.891Z,14.21
2019-04-27T13:25:14.435Z,14.19
2019-04-27T13:27:42.411Z,14.19
2019-04-27T13:30:11.154Z,14.23
2019-04-27T13:32:39.130Z,14.34
2019-04-27T13:35:07.644Z,14.37
2019-04-27T13:37:42.997Z,14.38
2019-04-27T13:40:12.730Z,14.38
2019-04-27T13:43:04.060Z,14.48
2019-04-27T13:45:49.888Z,14.45
2019-04-27T13:48:36.412Z,14.53
2019-04-27T13:51:07.571Z,14.53
2019-04-27T13:53:36.813Z,14.68
2019-04-27T13:56:14.993Z,14.72
2019-04-27T13:58:43.521Z,14.72
2019-04-27T14:01:11.498Z,14.79
2019-04-27T14:03:39.608Z,14.88
2019-04-27T14:06:08.376Z,14.88
2019-04-27T14:08:38.184Z,14.93
2019-04-27T14:11:06.425Z,14.94
2019-04-27T14:13:34.212Z,15.03
2019-04-27T14:16:02.201Z,15.03
2019-04-27T14:18:29.975Z,15.04
2019-04-27T14:20:59.214Z,15.13
2019-04-27T14:23:29.256Z,15.18
2019-04-27T14:25:58.517Z,15.27
2019-04-27T14:28:28.894Z,15.32
2019-04-27T14:30:58.919Z,15.28
2019-04-27T14:33:28.408Z,15.32
2019-04-27T14:35:56.447Z,15.33
2019-04-27T14:38:24.733Z,15.37
2019-04-27T14:40:52.798Z,15.38
2019-04-27T14:43:20.871Z,15.38
2019-04-27T14:45:48.891Z,15.41
2019-04-27T14:48:18.515Z,15.43
2019-04-27T14:50:48.397Z,15.43
2019-04-27T14:53:18.614Z,15.46
2019-04-27T14:55:46.657Z,15.49
2019-04-27T14:58:14.635Z,15.46
2019-04-27T15:00:42.669Z,15.50
2019-04-27T15:03:10.534Z,15.54
2019-04-27T15:05:38.315Z,15.55
2019-04-27T15:08:09.604Z,15.57
2019-04-27T15:10:36.289Z,15.59
2019-04-27T15:13:06.414Z,15.61
2019-04-27T15:15:34.417Z,15.65
2019-04-27T15:18:05.389Z,15.67
2019-04-27T15:20:40.958Z,15.67
2019-04-27T15:23:07.249Z,15.67
2019-04-27T15:25:45.130Z,15.73
2019-04-27T15:28:07.454Z,15.74
2019-04-27T15:31:22.382Z,15.73
2019-04-27T15:33:59.577Z,15.70
2019-04-27T15:36:38.043Z,15.77
2019-04-27T15:39:12.195Z,15.78
2019-04-27T15:41:46.367Z,15.80
2019-04-27T15:44:14.326Z,15.79
2019-04-27T15:46:42.544Z,15.82
2019-04-27T15:49:11.746Z,15.84
2019-04-27T15:51:39.900Z,15.86
2019-04-27T15:54:07.888Z,15.86
2019-04-27T15:56:36.983Z,15.90
2019-04-27T15:59:06.156Z,15.89
2019-04-27T16:01:35.682Z,15.91
2019-04-27T16:04:09.481Z,15.94
2019-04-27T16:06:34.120Z,15.97
2019-04-27T16:09:02.152Z,15.98
2019-04-27T16:11:29.928Z,16.02
2019-04-27T16:13:58.751Z,16.05
2019-04-27T16:16:29.135Z,16.06
2019-04-27T16:18:57.874Z,16.10
2019-04-27T16:21:28.519Z,16.09
2019-04-27T16:23:58.193Z,16.08
2019-04-27T16:26:26.106Z,16.07
2019-04-27T16:28:53.956Z,16.06
2019-04-27T16:31:24.936Z,16.04
2019-04-27T16:33:54.137Z,16.00
2019-04-27T16:36:21.458Z,16.02
2019-04-27T16:38:57.092Z,16.04
2019-04-27T16:41:24.981Z,16.07
2019-04-27T16:43:52.977Z,16.08
2019-04-27T16:46:21.413Z,16.09
2019-04-27T16:48:49.583Z,16.11
2019-04-27T16:51:18.348Z,16.12
2019-04-27T16:53:46.654Z,16.13
2019-04-27T16:56:18.334Z,16.13
2019-04-27T16:58:49.084Z,16.10
2019-04-27T17:01:22.635Z,16.08
2019-04-27T17:03:50.675Z,16.10
2019-04-27T17:06:21.295Z,16.09
2019-04-27T17:08:49.604Z,16.08
2019-04-27T17:11:19.654Z,16.10
2019-04-27T17:13:52.214Z,16.09
2019-04-27T17:16:54.460Z,16.08
2019-04-27T17:19:28.645Z,16.06
2019-04-27T17:21:56.648Z,16.05
2019-04-27T17:24:42.634Z,16.02
2019-04-27T17:27:11.088Z,16.04
2019-04-27T17:29:40.041Z,16.00
2019-04-27T17:32:10.573Z,15.97
2019-04-27T17:34:39.749Z,15.94
2019-04-27T17:37:08.302Z,15.90
2019-04-27T17:39:36.433Z,15.85
2019-04-27T17:42:05.015Z,15.82
2019-04-27T17:44:33.130Z,15.77
2019-04-27T17:47:01.048Z,15.74
2019-04-27T17:49:29.003Z,15.76
2019-04-27T17:51:58.597Z,15.69
2019-04-27T17:54:26.666Z,15.69
2019-04-27T17:56:54.438Z,15.69
2019-04-27T17:59:22.815Z,15.65
2019-04-27T18:02:04.710Z,15.64
2019-04-27T18:04:32.941Z,15.60
2019-04-27T18:07:03.364Z,15.58
2019-04-27T18:09:33.413Z,15.54
2019-04-27T18:12:02.199Z,15.52
2019-04-27T18:14:32.745Z,15.45
2019-04-27T18:17:03.601Z,15.45
2019-04-27T18:19:49.059Z,15.43
2019-04-27T18:22:19.894Z,15.32
2019-04-27T18:25:18.729Z,15.32
2019-04-27T18:28:02.692Z,15.35
2019-04-27T18:30:38.669Z,15.28
2019-04-27T18:33:04.225Z,15.26
2019-04-27T18:35:32.510Z,15.24
2019-04-27T18:38:01.910Z,15.22
2019-04-27T18:40:32.570Z,15.18
2019-04-27T18:43:01.873Z,15.14
2019-04-27T18:45:29.707Z,15.13
2019-04-27T18:48:06.704Z,15.11
2019-04-27T18:50:48.432Z,15.07
2019-04-27T18:53:23.281Z,15.01
2019-04-27T18:55:56.540Z,14.93
2019-04-27T18:58:19.454Z,14.91
2019-04-27T19:00:48.442Z,14.84
2019-04-27T19:03:18.310Z,14.76
2019-04-27T19:05:48.090Z,14.71
2019-04-27T19:08:17.776Z,14.64
2019-04-27T19:10:46.158Z,14.59
2019-04-27T19:13:14.199Z,14.54
2019-04-27T19:15:42.217Z,14.50
2019-04-27T19:18:10.195Z,14.46
2019-04-27T19:20:39.030Z,14.46
2019-04-27T19:23:26.319Z,14.49
2019-04-27T19:26:20.568Z,14.47
2019-04-27T19:29:02.951Z,14.36
2019-04-27T19:31:33.945Z,14.36
2019-04-27T19:34:01.829Z,14.31
2019-04-27T19:36:30.428Z,14.27
2019-04-27T19:38:58.581Z,14.27
2019-04-27T19:41:28.731Z,14.18
2019-04-27T19:43:56.825Z,14.18
2019-04-27T19:46:24.826Z,14.19
2019-04-27T19:48:52.693Z,14.08
2019-04-27T19:51:21.573Z,14.08
2019-04-27T19:53:49.610Z,14.04
2019-04-27T19:56:19.363Z,14.02
2019-04-27T19:58:51.932Z,14.03
2019-04-27T20:01:26.029Z,14.03
2019-04-27T20:03:59.792Z,13.96
2019-04-27T20:06:29.245Z,13.92
2019-04-27T20:09:02.194Z,13.83
2019-04-27T20:11:30.111Z,13.83
2019-04-27T20:13:58.047Z,13.81
2019-04-27T20:16:25.839Z,13.76
2019-04-27T20:18:53.910Z,13.78
2019-04-27T20:21:21.925Z,13.76
2019-04-27T20:23:50.705Z,13.76
2019-04-27T20:26:18.665Z,13.72
2019-04-27T20:28:46.556Z,13.68
2019-04-27T20:31:14.344Z,13.68
2019-04-27T20:33:42.196Z,13.57
2019-04-27T20:36:11.225Z,13.57
2019-04-27T20:38:39.575Z,13.45
2019-04-27T20:41:07.406Z,13.50
2019-04-27T20:43:35.404Z,13.48
2019-04-27T20:46:03.787Z,13.48
2019-04-27T20:48:31.731Z,13.49
2019-04-27T20:51:01.178Z,13.45
2019-04-27T20:53:34.262Z,13.50
2019-04-27T20:56:02.155Z,13.50
2019-04-27T20:58:31.104Z,13.49
2019-04-27T21:00:59.226Z,13.41
2019-04-27T21:03:52.207Z,13.42
2019-04-27T21:06:41.005Z,13.39
2019-04-27T21:09:21.219Z,13.33
2019-04-27T21:11:49.094Z,13.33
2019-04-27T21:14:17.156Z,13.30
2019-04-27T21:16:45.145Z,13.30
2019-04-27T21:19:13.116Z,13.27
2019-04-27T21:21:42.728Z,13.16
2019-04-27T21:24:11.002Z,13.16
2019-04-27T21:26:39.512Z,13.17
2019-04-27T21:29:07.502Z,13.12
2019-04-27T21:31:35.510Z,13.12
2019-04-27T21:34:03.473Z,13.09
2019-04-27T21:36:31.290Z,13.06
2019-04-27T21:38:59.223Z,13.06
2019-04-27T21:41:27.106Z,13.08
2019-04-27T21:43:54.945Z,13.06
2019-04-27T21:46:23.205Z,13.64
2019-04-27T21:48:51.101Z,14.35
2019-04-27T21:51:21.688Z,14.76
2019-04-27T21:54:02.082Z,15.07
2019-04-27T21:56:31.284Z,15.26
2019-04-27T21:59:01.022Z,15.26
2019-04-27T22:01:31.843Z,15.26
2019-04-27T22:04:01.011Z,15.25
2019-04-27T22:06:29.273Z,15.31
2019-04-27T22:08:57.284Z,15.40
2019-04-27T22:11:26.051Z,15.32
2019-04-27T22:13:53.963Z,15.47
2019-04-27T22:16:22.819Z,15.69
2019-04-27T22:18:52.030Z,15.02
2019-04-27T22:21:21.638Z,15.02
2019-04-27T22:23:58.649Z,14.73
2019-04-27T22:26:26.579Z,14.45
2019-04-27T22:28:54.688Z,14.20
2019-04-27T22:31:22.755Z,13.98
2019-04-27T22:33:53.814Z,13.84
2019-04-27T22:36:21.286Z,13.73
2019-04-27T22:38:49.324Z,13.69
2019-04-27T22:41:32.944Z,13.62
2019-04-27T22:44:21.519Z,13.53
2019-04-27T22:46:50.287Z,13.28
2019-04-27T22:49:18.994Z,13.28
2019-04-27T22:51:47.131Z,13.18
2019-04-27T22:54:15.456Z,13.13
2019-04-27T22:56:43.914Z,13.13
2019-04-27T22:59:23.079Z,13.14
2019-04-27T23:02:09.264Z,13.13
2019-04-27T23:04:42.058Z,13.13
2019-04-27T23:07:11.066Z,13.10
2019-04-27T23:09:40.724Z,13.05
2019-04-27T23:12:08.990Z,13.04
2019-04-27T23:14:36.705Z,12.96
2019-04-27T23:17:31.551Z,12.98
2019-04-27T23:20:01.281Z,12.98
2019-04-27T23:22:31.523Z,12.96
2019-04-27T23:25:01.074Z,12.95
2019-04-27T23:27:29.558Z,12.94
2019-04-27T23:29:57.291Z,12.92
2019-04-27T23:32:31.992Z,12.89
2019-04-27T23:34:59.830Z,12.89
2019-04-27T23:37:27.629Z,12.87
2019-04-27T23:39:55.362Z,12.78
2019-04-27T23:42:23.131Z,12.78
2019-04-27T23:44:50.914Z,12.75
2019-04-27T23:47:18.815Z,12.75
2019-04-27T23:49:46.575Z,12.69
2019-04-27T23:52:19.366Z,12.69
2019-04-27T23:54:47.086Z,12.65
2019-04-27T23:57:14.875Z,12.63
2019-04-27T23:59:42.700Z,12.54
